createdAt,value
2023-05-10T00:00:50.298Z,0.00
2023-05-10T00:01:50.320Z,0.00
2023-05-10T00:02:50.300Z,0.00
2023-05-10T00:03:50.372Z,0.00
2023-05-10T00:04:50.198Z,0.00
2023-05-10T00:05:51.561Z,0.00
2023-05-10T00:06:50.282Z,0.00
2023-05-10T00:07:50.176Z,0.00
2023-05-10T00:08:50.201Z,0.00
2023-05-10T00:09:50.148Z,0.00
2023-05-10T00:10:50.140Z,0.00
2023-05-10T00:11:50.138Z,0.00
2023-05-10T00:12:50.147Z,0.00
2023-05-10T00:13:50.129Z,0.00
2023-05-10T00:14:50.136Z,0.00
2023-05-10T00:15:50.101Z,0.00
2023-05-10T00:16:50.125Z,0.00
2023-05-10T00:17:50.093Z,0.00
2023-05-10T00:18:50.084Z,0.00
2023-05-10T00:19:50.070Z,0.00
2023-05-10T00:20:50.034Z,0.00
2023-05-10T00:21:50.038Z,0.00
2023-05-10T00:22:50.001Z,0.00
2023-05-10T00:23:50.015Z,0.00
2023-05-10T00:24:49.998Z,0.00
2023-05-10T00:25:50.001Z,0.00
2023-05-10T00:26:49.955Z,0.00
2023-05-10T00:27:49.962Z,0.00
2023-05-10T00:28:49.954Z,0.00
2023-05-10T00:29:49.951Z,0.00
2023-05-10T00:30:49.960Z,0.00
2023-05-10T00:31:49.945Z,0.00
2023-05-10T00:32:49.986Z,0.00
2023-05-10T00:33:49.896Z,0.00
2023-05-10T00:34:49.909Z,0.00
2023-05-10T00:35:49.879Z,0.00
2023-05-10T00:36:49.861Z,0.00
2023-05-10T00:37:49.876Z,0.00
2023-05-10T00:38:49.832Z,0.00
2023-05-10T00:39:49.845Z,0.00
2023-05-10T00:40:49.842Z,0.00
2023-05-10T00:41:49.823Z,0.00
2023-05-10T00:42:49.817Z,0.00
2023-05-10T00:43:49.808Z,0.00
2023-05-10T00:44:49.774Z,0.00
2023-05-10T00:45:49.864Z,0.00
2023-05-10T00:46:49.748Z,0.00
2023-05-10T00:47:49.788Z,0.00
2023-05-10T00:48:49.719Z,0.00
2023-05-10T00:49:49.730Z,0.00
2023-05-10T00:50:49.716Z,0.00
2023-05-10T00:51:49.738Z,0.00
2023-05-10T00:52:49.689Z,0.00
2023-05-10T00:53:49.676Z,0.00
2023-05-10T00:54:49.666Z,0.00
2023-05-10T00:55:49.741Z,0.00
2023-05-10T00:56:49.668Z,0.00
2023-05-10T00:57:49.640Z,0.00
2023-05-10T00:58:49.644Z,0.00
2023-05-10T00:59:49.625Z,0.00
2023-05-10T01:00:49.647Z,0.00
2023-05-10T01:01:49.598Z,0.00
2023-05-10T01:02:49.657Z,0.00
2023-05-10T01:03:49.578Z,0.00
2023-05-10T01:04:49.619Z,0.00
2023-05-10T01:05:49.558Z,0.00
2023-05-10T01:06:49.562Z,0.00
2023-05-10T01:07:49.552Z,0.00
2023-05-10T01:08:49.512Z,0.00
2023-05-10T01:09:49.512Z,0.00
2023-05-10T01:10:49.499Z,0.00
2023-05-10T01:11:49.513Z,0.00
2023-05-10T01:12:49.499Z,0.00
2023-05-10T01:13:49.482Z,0.00
2023-05-10T01:14:49.473Z,0.00
2023-05-10T01:15:49.459Z,0.00
2023-05-10T01:16:49.445Z,0.00
2023-05-10T01:17:49.455Z,0.00
2023-05-10T01:18:49.423Z,0.00
2023-05-10T01:19:49.384Z,0.00
2023-05-10T01:20:49.444Z,0.00
2023-05-10T01:21:49.372Z,0.00
2023-05-10T01:22:49.375Z,0.00
2023-05-10T01:23:49.337Z,0.00
2023-05-10T01:24:49.370Z,0.00
2023-05-10T01:25:49.320Z,0.00
2023-05-10T01:26:49.363Z,0.00
2023-05-10T01:27:49.307Z,0.00
2023-05-10T01:28:49.322Z,0.00
2023-05-10T01:29:58.160Z,0.00
2023-05-10T06:00:58.552Z,591.00
2023-05-10T06:01:59.472Z,590.00
2023-05-10T06:02:59.450Z,560.00
2023-05-10T06:03:59.422Z,567.00
2023-05-10T06:04:59.387Z,675.00
2023-05-10T06:05:59.360Z,824.00
2023-05-10T06:06:59.338Z,837.00
2023-05-10T06:07:59.323Z,899.00
2023-05-10T06:08:59.296Z,1007.00
2023-05-10T06:09:59.304Z,993.00
2023-05-10T06:10:59.298Z,1135.00
2023-05-10T06:11:59.287Z,1091.00
2023-05-10T06:12:59.332Z,1045.00
2023-05-10T06:13:59.267Z,1062.00
2023-05-10T06:14:59.233Z,1187.00
2023-05-10T06:15:59.269Z,1167.00
2023-05-10T06:16:59.228Z,1303.00
2023-05-10T06:17:59.286Z,1423.00
2023-05-10T06:18:59.186Z,1406.00
2023-05-10T06:19:59.189Z,1340.00
2023-05-10T06:20:59.203Z,1292.00
2023-05-10T06:21:59.186Z,1270.00
2023-05-10T06:22:59.161Z,1300.00
2023-05-10T06:23:59.137Z,1328.00
2023-05-10T06:24:59.127Z,1248.00
2023-05-10T06:25:59.132Z,1225.00
2023-05-10T06:26:59.096Z,1330.00
2023-05-10T06:27:59.155Z,1457.00
2023-05-10T06:28:59.073Z,1517.00
2023-05-10T06:30:11.644Z,1392.00
2023-05-10T06:30:59.068Z,1256.00
2023-05-10T06:31:59.130Z,1183.00
2023-05-10T06:32:59.099Z,1028.00
2023-05-10T06:33:59.084Z,1060.00
2023-05-10T06:34:59.069Z,1058.00
2023-05-10T06:35:59.034Z,902.00
2023-05-10T06:36:59.013Z,804.00
2023-05-10T06:37:58.990Z,708.00
2023-05-10T06:38:59.100Z,950.00
2023-05-10T06:39:59.024Z,1064.00
2023-05-10T06:40:58.950Z,1052.00
2023-05-10T06:41:58.984Z,1022.00
2023-05-10T06:42:58.928Z,1101.00
2023-05-10T06:43:58.963Z,1223.00
2023-05-10T06:44:58.894Z,1385.00
2023-05-10T06:45:58.957Z,1533.00
2023-05-10T06:46:58.900Z,1691.00
2023-05-10T06:47:58.949Z,1819.00
2023-05-10T06:48:58.907Z,1868.00
2023-05-10T06:49:58.876Z,1783.00
2023-05-10T06:50:58.851Z,1761.00
2023-05-10T06:51:58.859Z,1813.00
2023-05-10T06:52:58.819Z,1856.00
2023-05-10T06:53:58.831Z,1845.00
2023-05-10T06:54:58.811Z,1792.00
2023-05-10T06:55:58.807Z,1694.00
2023-05-10T06:56:58.818Z,1525.00
2023-05-10T06:57:58.789Z,1477.00
2023-05-10T06:58:58.784Z,1578.00
2023-05-10T06:59:58.791Z,1486.00
2023-05-10T07:00:58.812Z,1558.00
2023-05-10T07:01:58.797Z,1570.00
2023-05-10T07:02:59.536Z,1561.00
2023-05-10T07:03:58.717Z,1683.00
2023-05-10T07:05:01.854Z,2118.00
2023-05-10T07:05:58.712Z,2002.00
2023-05-10T07:06:58.707Z,2276.00
2023-05-10T07:07:58.702Z,1864.00
2023-05-10T07:08:58.704Z,1682.00
2023-05-10T07:09:58.780Z,1795.00
2023-05-10T07:10:58.630Z,1563.00
2023-05-10T07:11:58.643Z,1849.00
2023-05-10T07:12:58.732Z,2034.00
2023-05-10T07:13:58.723Z,1666.00
2023-05-10T07:14:58.640Z,1756.00
2023-05-10T07:15:58.623Z,1877.00
2023-05-10T07:16:58.574Z,1755.00
2023-05-10T07:17:58.794Z,1570.00
2023-05-10T07:18:58.574Z,1361.00
2023-05-10T07:19:58.554Z,1112.00
2023-05-10T07:20:58.578Z,1017.00
2023-05-10T07:21:58.533Z,1077.00
2023-05-10T07:22:58.497Z,948.00
2023-05-10T07:23:58.611Z,949.00
2023-05-10T07:24:58.473Z,1269.00
2023-05-10T07:25:58.517Z,1342.00
2023-05-10T07:26:58.496Z,1175.00
2023-05-10T07:27:58.456Z,1216.00
2023-05-10T07:28:58.445Z,984.00
2023-05-10T07:29:58.446Z,960.00
2023-05-10T07:30:58.432Z,1114.00
2023-05-10T07:31:59.069Z,1255.00
2023-05-10T07:32:58.435Z,1343.00
2023-05-10T07:33:58.474Z,1133.00
2023-05-10T07:34:58.381Z,1005.00
2023-05-10T07:35:58.384Z,877.00
2023-05-10T07:36:58.359Z,742.00
2023-05-10T07:37:58.354Z,602.00
2023-05-10T07:38:58.335Z,723.00
2023-05-10T07:39:58.363Z,631.00
2023-05-10T07:40:58.298Z,919.00
2023-05-10T07:41:58.325Z,1286.00
2023-05-10T07:42:58.313Z,1142.00
2023-05-10T07:43:58.293Z,1275.00
2023-05-10T07:44:58.264Z,1626.00
2023-05-10T07:45:58.294Z,1796.00
2023-05-10T07:46:58.249Z,1826.00
2023-05-10T07:47:58.295Z,2109.00
2023-05-10T07:48:58.220Z,1883.00
2023-05-10T07:49:58.212Z,1434.00
2023-05-10T07:50:58.220Z,1385.00
2023-05-10T07:51:58.204Z,1318.00
2023-05-10T07:52:58.170Z,1117.00
2023-05-10T07:53:58.171Z,1439.00
2023-05-10T07:54:58.154Z,1874.00
2023-05-10T07:55:58.237Z,1532.00
2023-05-10T07:56:58.179Z,1533.00
2023-05-10T07:57:58.147Z,1528.00
2023-05-10T07:58:58.110Z,2022.00
2023-05-10T07:59:58.117Z,2329.00
2023-05-10T08:00:58.101Z,2253.00
2023-05-10T08:01:58.107Z,2168.00
2023-05-10T08:02:58.220Z,2247.00
2023-05-10T08:03:58.132Z,2466.00
2023-05-10T08:04:58.047Z,2501.00
2023-05-10T08:05:58.046Z,2466.00
2023-05-10T08:06:58.033Z,2561.00
2023-05-10T08:07:58.034Z,2673.00
2023-05-10T08:08:58.027Z,2631.00
2023-05-10T08:09:58.008Z,2504.00
2023-05-10T08:10:57.997Z,2395.00
2023-05-10T08:11:58.011Z,2629.00
2023-05-10T08:12:57.953Z,2263.00
2023-05-10T08:13:57.977Z,1499.00
2023-05-10T08:14:57.965Z,2201.00
2023-05-10T08:15:57.999Z,2236.00
2023-05-10T08:16:57.958Z,1820.00
2023-05-10T08:17:57.966Z,1991.00
2023-05-10T08:18:57.957Z,1930.00
2023-05-10T08:19:57.938Z,1820.00
2023-05-10T08:20:57.878Z,2073.00
2023-05-10T08:21:57.895Z,1704.00
2023-05-10T08:22:57.897Z,1857.00
2023-05-10T08:23:57.874Z,2464.00
2023-05-10T08:24:57.860Z,2568.00
2023-05-10T08:25:57.831Z,2950.00
2023-05-10T08:26:57.915Z,3183.00
2023-05-10T08:27:57.802Z,3185.00
2023-05-10T08:28:57.863Z,2756.00
2023-05-10T08:29:57.798Z,2997.00
2023-05-10T08:30:57.833Z,2894.00
2023-05-10T08:31:57.752Z,2736.00
2023-05-10T08:32:57.954Z,1943.00
2023-05-10T08:33:58.981Z,1239.00
2023-05-10T08:34:57.801Z,2125.00
2023-05-10T08:35:57.717Z,1620.00
2023-05-10T08:36:57.730Z,1535.00
2023-05-10T08:37:57.690Z,1947.00
2023-05-10T08:38:57.706Z,2242.00
2023-05-10T08:39:57.686Z,2251.00
2023-05-10T08:40:57.902Z,2261.00
2023-05-10T08:41:57.690Z,2307.00
2023-05-10T08:42:57.667Z,1842.00
2023-05-10T08:43:57.654Z,1784.00
2023-05-10T08:44:57.664Z,2520.00
2023-05-10T08:45:57.625Z,2608.00
2023-05-10T08:46:57.661Z,2611.00
2023-05-10T08:47:57.657Z,2463.00
2023-05-10T08:48:57.604Z,2106.00
2023-05-10T08:49:57.613Z,2358.00
2023-05-10T08:50:57.621Z,2673.00
2023-05-10T08:51:57.553Z,2609.00
2023-05-10T08:52:57.579Z,2748.00
2023-05-10T08:53:57.535Z,2689.00
2023-05-10T08:54:57.521Z,2639.00
2023-05-10T08:55:57.513Z,2496.00
2023-05-10T08:56:57.533Z,2128.00
2023-05-10T08:57:57.479Z,2014.00
2023-05-10T08:58:57.482Z,1920.00
2023-05-10T08:59:57.476Z,1842.00
2023-05-10T09:00:57.513Z,1652.00
2023-05-10T09:01:57.441Z,1549.00
2023-05-10T09:02:57.482Z,1315.00
2023-05-10T09:03:57.460Z,1329.00
2023-05-10T09:04:57.511Z,1870.00
2023-05-10T09:05:57.421Z,2022.00
2023-05-10T09:06:57.423Z,2179.00
2023-05-10T09:07:57.405Z,2141.00
2023-05-10T09:08:57.388Z,2022.00
2023-05-10T09:09:57.352Z,1994.00
2023-05-10T09:10:57.363Z,1028.00
2023-05-10T09:11:57.373Z,1467.00
2023-05-10T09:12:59.204Z,2423.00
2023-05-10T09:13:57.382Z,2610.00
2023-05-10T09:14:57.321Z,2571.00
2023-05-10T09:16:02.073Z,2312.00
2023-05-10T09:16:57.333Z,2212.00
2023-05-10T09:17:57.309Z,1784.00
2023-05-10T09:18:57.328Z,2192.00
2023-05-10T09:19:57.259Z,2897.00
2023-05-10T09:20:57.291Z,3176.00
2023-05-10T09:21:57.277Z,2887.00
2023-05-10T09:22:57.291Z,2780.00
2023-05-10T09:23:57.217Z,3371.00
2023-05-10T09:24:57.258Z,3686.00
2023-05-10T09:25:57.182Z,3548.00
2023-05-10T09:26:57.268Z,3489.00
2023-05-10T09:27:57.196Z,3376.00
2023-05-10T09:28:57.237Z,2769.00
2023-05-10T09:29:57.166Z,2334.00
2023-05-10T09:30:57.298Z,2037.00
2023-05-10T09:31:57.128Z,1926.00
2023-05-10T09:32:57.156Z,1625.00
2023-05-10T09:33:57.123Z,1446.00
2023-05-10T09:34:57.104Z,1335.00
2023-05-10T09:35:57.124Z,1009.00
2023-05-10T09:36:57.100Z,527.00
2023-05-10T09:37:57.128Z,313.00
2023-05-10T09:38:57.105Z,688.00
2023-05-10T09:39:57.054Z,2248.00
2023-05-10T09:40:57.044Z,3363.00
2023-05-10T09:41:57.045Z,3701.00
2023-05-10T09:42:57.115Z,3519.00
2023-05-10T09:43:56.988Z,3709.00
2023-05-10T09:44:57.060Z,3583.00
2023-05-10T09:45:56.989Z,3268.00
2023-05-10T09:46:56.972Z,3732.00
2023-05-10T09:47:56.993Z,3769.00
2023-05-10T09:48:56.996Z,4076.00
2023-05-10T09:49:56.928Z,3852.00
2023-05-10T09:50:56.954Z,3964.00
2023-05-10T09:51:56.922Z,3959.00
2023-05-10T09:52:56.902Z,3880.00
2023-05-10T09:53:56.893Z,3742.00
2023-05-10T09:54:56.901Z,3900.00
2023-05-10T09:55:56.864Z,4033.00
2023-05-10T09:56:56.880Z,3936.00
2023-05-10T09:57:58.934Z,3741.00
2023-05-10T09:58:56.952Z,3657.00
2023-05-10T09:59:56.819Z,3756.00
2023-05-10T10:00:56.831Z,2835.00
2023-05-10T10:01:57.343Z,1859.00
2023-05-10T10:02:56.847Z,1222.00
2023-05-10T10:03:56.774Z,1822.00
2023-05-10T10:04:56.813Z,2522.00
2023-05-10T10:05:56.787Z,2630.00
2023-05-10T10:06:56.763Z,2079.00
2023-05-10T10:07:56.792Z,1594.00
2023-05-10T10:08:56.884Z,1487.00
2023-05-10T10:09:56.758Z,1850.00
2023-05-10T10:10:56.722Z,1908.00
2023-05-10T10:11:56.698Z,1653.00
2023-05-10T10:12:56.725Z,1835.00
2023-05-10T10:13:56.702Z,1810.00
2023-05-10T10:14:56.682Z,1873.00
2023-05-10T10:15:56.678Z,2084.00
2023-05-10T10:17:07.332Z,2129.00
2023-05-10T10:17:56.668Z,2272.00
2023-05-10T10:18:56.758Z,2383.00
2023-05-10T10:19:56.607Z,2657.00
2023-05-10T10:20:56.635Z,2864.00
2023-05-10T10:21:56.591Z,2950.00
2023-05-10T10:22:56.594Z,3278.00
2023-05-10T10:23:56.603Z,3810.00
2023-05-10T10:24:56.576Z,4332.00
2023-05-10T10:25:56.558Z,4170.00
2023-05-10T10:26:56.542Z,3915.00
2023-05-10T10:27:56.528Z,3713.00
2023-05-10T10:28:56.534Z,3486.00
2023-05-10T10:29:56.523Z,3109.00
2023-05-10T10:30:56.526Z,2889.00
2023-05-10T10:31:56.624Z,3615.00
2023-05-10T10:32:56.524Z,4050.00
2023-05-10T10:33:56.455Z,4211.00
2023-05-10T10:34:56.483Z,5183.00
2023-05-10T10:35:56.442Z,5780.00
2023-05-10T10:36:56.618Z,5331.00
2023-05-10T10:37:56.612Z,4134.00
2023-05-10T10:38:56.420Z,3741.00
2023-05-10T10:39:56.422Z,3954.00
2023-05-10T10:40:56.397Z,3997.00
2023-05-10T10:41:56.403Z,3403.00
2023-05-10T10:42:56.398Z,2993.00
2023-05-10T10:43:56.364Z,2280.00
2023-05-10T10:44:56.349Z,2012.00
2023-05-10T10:45:56.345Z,975.00
2023-05-10T10:46:56.378Z,1914.00
2023-05-10T10:47:56.354Z,2119.00
2023-05-10T10:48:56.322Z,2111.00
2023-05-10T10:49:56.288Z,2222.00
2023-05-10T10:50:56.300Z,2658.00
2023-05-10T10:51:56.304Z,2604.00
2023-05-10T10:52:56.302Z,3020.00
2023-05-10T10:53:56.251Z,3389.00
2023-05-10T10:54:56.253Z,3635.00
2023-05-10T10:55:56.225Z,3318.00
2023-05-10T10:56:56.224Z,3250.00
2023-05-10T10:57:56.251Z,3184.00
2023-05-10T10:58:56.204Z,3148.00
2023-05-10T10:59:56.181Z,3194.00
2023-05-10T11:00:56.230Z,3400.00
2023-05-10T11:01:56.161Z,3291.00
2023-05-10T11:02:56.287Z,3378.00
2023-05-10T11:03:56.201Z,3348.00
2023-05-10T11:04:56.152Z,3672.00
2023-05-10T11:05:56.119Z,3635.00
2023-05-10T11:06:56.130Z,3876.00
2023-05-10T11:07:56.105Z,4232.00
2023-05-10T11:08:56.124Z,4430.00
2023-05-10T11:09:56.077Z,4618.00
2023-05-10T11:10:56.103Z,4640.00
2023-05-10T11:11:56.404Z,4567.00
2023-05-10T11:12:56.055Z,4515.00
2023-05-10T11:13:56.049Z,4386.00
2023-05-10T11:14:56.033Z,4392.00
2023-05-10T11:15:56.021Z,4514.00
2023-05-10T11:16:56.060Z,4416.00
2023-05-10T11:17:56.062Z,4376.00
2023-05-10T11:18:56.131Z,4159.00
2023-05-10T11:19:55.959Z,4144.00
2023-05-10T11:20:56.017Z,4141.00
2023-05-10T11:21:55.949Z,4114.00
2023-05-10T11:22:55.963Z,4308.00
2023-05-10T11:23:55.943Z,4469.00
2023-05-10T11:24:56.010Z,4776.00
2023-05-10T11:25:55.901Z,4946.00
2023-05-10T11:26:55.909Z,4651.00
2023-05-10T11:27:55.899Z,4514.00
2023-05-10T11:28:55.894Z,4311.00
2023-05-10T11:29:55.905Z,4352.00
2023-05-10T11:30:56.031Z,4419.00
2023-05-10T11:31:55.851Z,4325.00
2023-05-10T11:32:55.890Z,3833.00
2023-05-10T11:33:55.846Z,3005.00
2023-05-10T11:34:55.907Z,2348.00
2023-05-10T11:35:58.487Z,1790.00
2023-05-10T11:36:55.837Z,1620.00
2023-05-10T11:37:55.763Z,1716.00
2023-05-10T11:38:55.799Z,1918.00
2023-05-10T11:39:55.767Z,1958.00
2023-05-10T11:40:55.763Z,1899.00
2023-05-10T11:41:55.732Z,2097.00
2023-05-10T11:42:55.792Z,2483.00
2023-05-10T11:43:55.710Z,2798.00
2023-05-10T11:44:55.714Z,3123.00
2023-05-10T11:45:55.763Z,3327.00
2023-05-10T11:46:55.705Z,3222.00
2023-05-10T11:47:55.703Z,3116.00
2023-05-10T11:48:55.699Z,2532.00
2023-05-10T11:49:55.739Z,1839.00
2023-05-10T11:50:55.802Z,1397.00
2023-05-10T11:51:55.648Z,1356.00
2023-05-10T11:52:55.626Z,1380.00
2023-05-10T11:53:55.597Z,1509.00
2023-05-10T11:54:55.637Z,1436.00
2023-05-10T11:55:55.624Z,1319.00
2023-05-10T11:56:55.580Z,845.00
2023-05-10T11:57:55.590Z,614.00
2023-05-10T11:58:55.574Z,520.00
2023-05-10T11:59:55.561Z,702.00
2023-05-10T12:00:55.555Z,1009.00
2023-05-10T12:01:55.521Z,1172.00
2023-05-10T12:02:55.582Z,1242.00
2023-05-10T12:03:55.870Z,1288.00
2023-05-10T12:04:55.515Z,1320.00
2023-05-10T12:05:55.482Z,1358.00
2023-05-10T12:06:55.507Z,1586.00
2023-05-10T12:07:55.464Z,1750.00
2023-05-10T12:08:55.464Z,1958.00
2023-05-10T12:09:55.482Z,2199.00
2023-05-10T12:10:55.474Z,2511.00
2023-05-10T12:11:55.420Z,2677.00
2023-05-10T12:12:55.413Z,2739.00
2023-05-10T12:13:55.396Z,2850.00
2023-05-10T12:14:55.395Z,3008.00
2023-05-10T12:15:55.391Z,3323.00
2023-05-10T12:16:55.449Z,3796.00
2023-05-10T12:17:55.516Z,4213.00
2023-05-10T12:18:55.365Z,4554.00
2023-05-10T12:19:55.322Z,4688.00
2023-05-10T12:20:55.351Z,5063.00
2023-05-10T12:21:55.319Z,5197.00
2023-05-10T12:22:55.299Z,5633.00
2023-05-10T12:23:55.289Z,6268.00
2023-05-10T12:24:55.297Z,5587.00
2023-05-10T12:25:55.264Z,4864.00
2023-05-10T12:26:55.276Z,5002.00
2023-05-10T12:27:55.253Z,5489.00
2023-05-10T12:28:55.257Z,6026.00
2023-05-10T12:29:55.239Z,6039.00
2023-05-10T12:30:55.230Z,5369.00
2023-05-10T12:31:55.250Z,4927.00
2023-05-10T12:32:55.201Z,5001.00
2023-05-10T12:33:55.197Z,5651.00
2023-05-10T12:34:55.175Z,5481.00
2023-05-10T12:35:55.158Z,5257.00
2023-05-10T12:36:55.236Z,5236.00
2023-05-10T12:37:55.157Z,5311.00
2023-05-10T12:38:55.163Z,5213.00
2023-05-10T12:39:55.132Z,5153.00
2023-05-10T12:40:55.133Z,5208.00
2023-05-10T12:41:55.117Z,5224.00
2023-05-10T12:42:55.126Z,5332.00
2023-05-10T12:43:55.091Z,5212.00
2023-05-10T12:44:55.245Z,5179.00
2023-05-10T12:45:55.087Z,5382.00
2023-05-10T12:46:55.068Z,5178.00
2023-05-10T12:47:55.131Z,5774.00
2023-05-10T12:49:06.870Z,5301.00
2023-05-10T12:49:55.029Z,4127.00
2023-05-10T12:50:55.041Z,4369.00
2023-05-10T12:51:55.006Z,4966.00
2023-05-10T12:52:54.961Z,5234.00
2023-05-10T12:53:54.985Z,5990.00
2023-05-10T12:54:54.952Z,4855.00
2023-05-10T12:55:54.955Z,3862.00
2023-05-10T12:56:54.968Z,2672.00
2023-05-10T12:57:54.933Z,3480.00
2023-05-10T12:58:54.968Z,3870.00
2023-05-10T12:59:54.926Z,4248.00
2023-05-10T13:00:54.931Z,4768.00
2023-05-10T13:01:54.913Z,4133.00
2023-05-10T13:02:54.980Z,5173.00
2023-05-10T13:03:54.873Z,5297.00
2023-05-10T13:04:54.880Z,5423.00
2023-05-10T13:05:54.847Z,5015.00
2023-05-10T13:06:54.823Z,5414.00
2023-05-10T13:07:54.846Z,6122.00
2023-05-10T13:08:54.791Z,5881.00
2023-05-10T13:09:54.840Z,5323.00
2023-05-10T13:10:54.786Z,5870.00
2023-05-10T13:11:54.809Z,5616.00
2023-05-10T13:12:54.749Z,5515.00
2023-05-10T13:13:54.811Z,6129.00
2023-05-10T13:14:54.753Z,5301.00
2023-05-10T13:15:54.746Z,4575.00
2023-05-10T13:16:54.738Z,5379.00
2023-05-10T13:17:54.835Z,6193.00
2023-05-10T13:18:54.708Z,5904.00
2023-05-10T13:19:54.759Z,5141.00
2023-05-10T13:20:54.721Z,5515.00
2023-05-10T13:21:54.696Z,5311.00
2023-05-10T13:22:54.662Z,5229.00
2023-05-10T13:23:54.660Z,4913.00
2023-05-10T13:24:54.622Z,4068.00
2023-05-10T13:25:54.658Z,3839.00
2023-05-10T13:26:54.603Z,3925.00
2023-05-10T13:27:54.615Z,3749.00
2023-05-10T13:28:54.584Z,3200.00
2023-05-10T13:29:54.600Z,3309.00
2023-05-10T13:30:54.635Z,3592.00
2023-05-10T13:31:54.731Z,3369.00
2023-05-10T13:32:54.585Z,3377.00
2023-05-10T13:33:54.560Z,3326.00
2023-05-10T13:34:54.522Z,2981.00
2023-05-10T13:35:55.757Z,3245.00
2023-05-10T13:36:54.497Z,3618.00
2023-05-10T13:37:54.580Z,2801.00
2023-05-10T13:38:54.482Z,2585.00
2023-05-10T13:39:54.488Z,3693.00
2023-05-10T13:40:54.484Z,4251.00
2023-05-10T13:41:55.851Z,5079.00
2023-05-10T13:42:54.444Z,5126.00
2023-05-10T13:43:54.505Z,4073.00
2023-05-10T13:44:54.422Z,5041.00
2023-05-10T13:45:54.493Z,5785.00
2023-05-10T13:46:54.547Z,5791.00
2023-05-10T13:47:54.541Z,5652.00
2023-05-10T13:48:54.383Z,5149.00
2023-05-10T13:49:54.399Z,5134.00
2023-05-10T13:50:54.360Z,5155.00
2023-05-10T13:51:54.386Z,6030.00
2023-05-10T13:52:54.325Z,5973.00
2023-05-10T13:53:54.355Z,5576.00
2023-05-10T13:54:54.309Z,5480.00
2023-05-10T13:55:54.329Z,5544.00
2023-05-10T13:56:54.286Z,5020.00
2023-05-10T13:57:54.309Z,5799.00
2023-05-10T13:58:54.272Z,5320.00
2023-05-10T13:59:55.930Z,5008.00
2023-05-10T14:00:54.276Z,4754.00
2023-05-10T14:01:54.317Z,4620.00
2023-05-10T14:02:54.297Z,5842.00
2023-05-10T14:03:54.253Z,5290.00
2023-05-10T14:04:54.197Z,5015.00
2023-05-10T14:05:54.218Z,5174.00
2023-05-10T14:06:54.203Z,5342.00
2023-05-10T14:07:54.181Z,5583.00
2023-05-10T14:08:54.165Z,5279.00
2023-05-10T14:09:54.162Z,5915.00
2023-05-10T14:10:54.144Z,5783.00
2023-05-10T14:11:54.145Z,5379.00
2023-05-10T14:12:54.136Z,5648.00
2023-05-10T14:13:54.133Z,5191.00
2023-05-10T14:14:54.150Z,5522.00
2023-05-10T14:15:54.234Z,5049.00
2023-05-10T14:16:54.094Z,4552.00
2023-05-10T14:17:54.140Z,4583.00
2023-05-10T14:18:54.210Z,4562.00
2023-05-10T14:19:54.051Z,4807.00
2023-05-10T14:20:54.033Z,4716.00
2023-05-10T14:21:54.034Z,4535.00
2023-05-10T14:22:54.034Z,4235.00
2023-05-10T14:23:54.056Z,4102.00
2023-05-10T14:24:54.006Z,3796.00
2023-05-10T14:25:53.999Z,4201.00
2023-05-10T14:26:53.988Z,5076.00
2023-05-10T14:27:54.032Z,5054.00
2023-05-10T14:28:54.035Z,4934.00
2023-05-10T14:29:53.956Z,5699.00
2023-05-10T14:30:53.942Z,6143.00
2023-05-10T14:31:53.946Z,4422.00
2023-05-10T14:32:53.933Z,7384.00
2023-05-10T14:33:53.919Z,8278.00
2023-05-10T14:34:53.909Z,10374.00
2023-05-10T14:35:53.885Z,10576.00
2023-05-10T14:36:53.860Z,7434.00
2023-05-10T14:37:53.870Z,14939.00
2023-05-10T14:38:53.848Z,17524.00
2023-05-10T14:39:53.866Z,15490.00
2023-05-10T14:40:53.846Z,12445.00
2023-05-10T14:41:53.819Z,14230.00
2023-05-10T14:42:53.818Z,14853.00
2023-05-10T14:43:53.814Z,10144.00
2023-05-10T14:44:53.794Z,9973.00
2023-05-10T14:45:53.806Z,8340.00
2023-05-10T14:46:53.783Z,8851.00
2023-05-10T14:47:53.834Z,11610.00
2023-05-10T14:48:53.732Z,11199.00
2023-05-10T14:49:53.738Z,8164.00
2023-05-10T14:50:53.738Z,9334.00
2023-05-10T14:51:53.730Z,8169.00
2023-05-10T14:52:53.690Z,8226.00
2023-05-10T14:53:53.698Z,8854.00
2023-05-10T14:54:53.669Z,7620.00
2023-05-10T14:55:53.674Z,7275.00
2023-05-10T14:56:53.655Z,8588.00
2023-05-10T14:57:53.655Z,8664.00
2023-05-10T14:58:53.655Z,8430.00
2023-05-10T14:59:53.640Z,7364.00
2023-05-10T15:00:53.646Z,7771.00
2023-05-10T15:01:53.608Z,10015.00
2023-05-10T15:02:53.751Z,11196.00
2023-05-10T15:03:53.631Z,11407.00
2023-05-10T15:04:53.584Z,9938.00
2023-05-10T15:05:53.625Z,9933.00
2023-05-10T15:06:53.570Z,7987.00
2023-05-10T15:07:53.572Z,8667.00
2023-05-10T15:08:53.519Z,8906.00
2023-05-10T15:09:53.558Z,8739.00
2023-05-10T15:10:53.518Z,7576.00
2023-05-10T15:11:53.509Z,7895.00
2023-05-10T15:12:53.477Z,6722.00
2023-05-10T15:13:53.501Z,5261.00
2023-05-10T15:14:53.447Z,6459.00
2023-05-10T15:15:53.470Z,5005.00
2023-05-10T15:16:53.441Z,4101.00
2023-05-10T15:17:53.485Z,6686.00
2023-05-10T15:18:53.484Z,9530.00
2023-05-10T15:19:53.478Z,4960.00
2023-05-10T15:20:53.413Z,8183.00
2023-05-10T15:21:53.416Z,12302.00
2023-05-10T15:22:53.371Z,8861.00
2023-05-10T15:23:53.369Z,9884.00
2023-05-10T15:24:53.339Z,2572.00
2023-05-10T15:25:53.370Z,13511.00
2023-05-10T15:26:53.325Z,11964.00
2023-05-10T15:27:53.406Z,7765.00
2023-05-10T15:28:53.317Z,7860.00
2023-05-10T15:29:53.316Z,6990.00
2023-05-10T15:30:53.364Z,5895.00
2023-05-10T15:31:53.329Z,4240.00
2023-05-10T15:32:53.312Z,4545.00
2023-05-10T15:33:53.284Z,4360.00
2023-05-10T15:34:53.253Z,4488.00
2023-05-10T15:35:53.252Z,3970.00
2023-05-10T15:36:53.254Z,3783.00
2023-05-10T15:37:53.247Z,4063.00
2023-05-10T15:38:53.225Z,4103.00
2023-05-10T15:39:53.638Z,3679.00
2023-05-10T15:40:53.186Z,3447.00
2023-05-10T15:41:53.190Z,3441.00
2023-05-10T15:42:53.146Z,3801.00
2023-05-10T15:43:53.173Z,3413.00
2023-05-10T15:44:53.127Z,3207.00
2023-05-10T15:45:53.165Z,3121.00
2023-05-10T15:46:53.215Z,3044.00
2023-05-10T15:47:53.156Z,2869.00
2023-05-10T15:48:53.096Z,2818.00
2023-05-10T15:49:53.104Z,2791.00
2023-05-10T15:50:53.102Z,2736.00
2023-05-10T15:51:53.090Z,2526.00
2023-05-10T15:52:53.073Z,2300.00
2023-05-10T15:54:05.705Z,2172.00
2023-05-10T15:54:53.034Z,1977.00
2023-05-10T15:55:53.031Z,1735.00
2023-05-10T15:56:53.009Z,1750.00
2023-05-10T15:57:53.012Z,1805.00
2023-05-10T15:58:53.000Z,1800.00
2023-05-10T15:59:52.992Z,1786.00
2023-05-10T16:00:52.997Z,1788.00
2023-05-10T16:01:53.009Z,1876.00
2023-05-10T16:02:53.080Z,2023.00
2023-05-10T16:03:52.952Z,2127.00
2023-05-10T16:04:52.926Z,2084.00
2023-05-10T16:05:52.923Z,2076.00
2023-05-10T16:06:52.897Z,2092.00
2023-05-10T16:07:52.908Z,2063.00
2023-05-10T16:08:54.120Z,2004.00
2023-05-10T16:09:52.898Z,1976.00
2023-05-10T16:10:52.885Z,1922.00
2023-05-10T16:11:52.875Z,1833.00
2023-05-10T16:12:52.866Z,1805.00
2023-05-10T16:13:52.863Z,1768.00
2023-05-10T16:14:52.817Z,1718.00
2023-05-10T16:15:52.823Z,1724.00
2023-05-10T16:16:52.966Z,1738.00
2023-05-10T16:17:52.921Z,1778.00
2023-05-10T16:18:52.930Z,1731.00
2023-05-10T16:19:52.793Z,1740.00
2023-05-10T16:20:52.765Z,1717.00
2023-05-10T16:21:52.763Z,1849.00
2023-05-10T16:22:52.750Z,1794.00
2023-05-10T16:23:52.757Z,1879.00
2023-05-10T16:24:52.706Z,1782.00
2023-05-10T16:25:52.716Z,1814.00
2023-05-10T16:26:52.683Z,1880.00
2023-05-10T16:27:52.704Z,1893.00
2023-05-10T16:28:52.725Z,1868.00
2023-05-10T16:29:52.708Z,1901.00
2023-05-10T16:30:52.934Z,1742.00
2023-05-10T16:31:52.709Z,1543.00
2023-05-10T16:32:52.731Z,1597.00
2023-05-10T16:33:52.675Z,1712.00
2023-05-10T16:34:52.608Z,1776.00
2023-05-10T16:35:52.698Z,1866.00
2023-05-10T16:36:52.614Z,1931.00
2023-05-10T16:37:52.639Z,1844.00
2023-05-10T16:38:52.579Z,1646.00
2023-05-10T16:39:52.567Z,1780.00
2023-05-10T16:40:52.588Z,1898.00
2023-05-10T16:41:52.587Z,1937.00
2023-05-10T16:42:52.517Z,1913.00
2023-05-10T16:43:52.528Z,1847.00
2023-05-10T16:44:52.521Z,1680.00